sensor_id;sensor_type;location;lat;lon;timestamp;pressure;altitude;pressure_sealevel;temperature;humidity
79242;BME280;68670;48.720;9.118;2023-09-19T00:01:40;96538.28;;;15.52;92.73
79242;BME280;68670;48.720;9.118;2023-09-19T00:04:07;96538.00;;;15.49;93.14
79242;BME280;68670;48.720;9.118;2023-09-19T00:06:36;96539.66;;;15.50;93.05
79242;BME280;68670;48.720;9.118;2023-09-19T00:09:04;96530.84;;;15.48;93.47
79242;BME280;68670;48.720;9.118;2023-09-19T00:11:35;96545.19;;;15.50;93.35
79242;BME280;68670;48.720;9.118;2023-09-19T00:14:03;96544.66;;;15.48;93.53
79242;BME280;68670;48.720;9.118;2023-09-19T00:16:33;96557.91;;;15.40;93.71
79242;BME280;68670;48.720;9.118;2023-09-19T00:18:59;96552.09;;;15.47;93.59
79242;BME280;68670;48.720;9.118;2023-09-19T00:21:31;96547.41;;;15.42;93.87
79242;BME280;68670;48.720;9.118;2023-09-19T00:23:56;96543.00;;;15.41;93.55
79242;BME280;68670;48.720;9.118;2023-09-19T00:26:24;96542.19;;;15.41;93.31
79242;BME280;68670;48.720;9.118;2023-09-19T00:28:52;96538.31;;;15.42;93.16
79242;BME280;68670;48.720;9.118;2023-09-19T00:31:20;96532.22;;;15.45;92.73
79242;BME280;68670;48.720;9.118;2023-09-19T00:33:52;96537.78;;;15.35;93.86
79242;BME280;68670;48.720;9.118;2023-09-19T00:36:18;96538.59;;;15.45;92.80
79242;BME280;68670;48.720;9.118;2023-09-19T00:38:43;96535.84;;;15.40;92.82
79242;BME280;68670;48.720;9.118;2023-09-19T00:41:12;96544.66;;;15.42;93.48
79242;BME280;68670;48.720;9.118;2023-09-19T00:43:38;96552.38;;;15.45;92.77
79242;BME280;68670;48.720;9.118;2023-09-19T00:46:05;96549.63;;;15.45;92.67
79242;BME280;68670;48.720;9.118;2023-09-19T00:48:41;96554.63;;;15.38;93.14
79242;BME280;68670;48.720;9.118;2023-09-19T00:51:12;96561.25;;;15.32;93.38
79242;BME280;68670;48.720;9.118;2023-09-19T00:53:41;96561.25;;;15.27;94.50
79242;BME280;68670;48.720;9.118;2023-09-19T00:56:11;96567.59;;;15.33;93.62
79242;BME280;68670;48.720;9.118;2023-09-19T00:58:37;96566.50;;;15.29;93.90
79242;BME280;68670;48.720;9.118;2023-09-19T01:01:04;96571.78;;;15.25;93.79
79242;BME280;68670;48.720;9.118;2023-09-19T01:03:33;96574.78;;;15.29;93.59
79242;BME280;68670;48.720;9.118;2023-09-19T01:06:02;96569.53;;;15.27;93.58
79242;BME280;68670;48.720;9.118;2023-09-19T01:08:29;96572.81;;;15.39;92.03
79242;BME280;68670;48.720;9.118;2023-09-19T01:11:35;96572.25;;;15.42;91.54
79242;BME280;68670;48.720;9.118;2023-09-19T01:14:20;96577.19;;;15.51;90.77
79242;BME280;68670;48.720;9.118;2023-09-19T01:30:57;96578.34;;;15.39;90.12
79242;BME280;68670;48.720;9.118;2023-09-19T01:33:26;96578.88;;;15.46;89.42
79242;BME280;68670;48.720;9.118;2023-09-19T01:35:54;96579.13;;;15.50;88.63
79242;BME280;68670;48.720;9.118;2023-09-19T01:38:23;96585.78;;;15.44;89.19
79242;BME280;68670;48.720;9.118;2023-09-19T01:41:00;96579.69;;;15.47;88.19
79242;BME280;68670;48.720;9.118;2023-09-19T01:43:36;96588.22;;;15.56;87.55
79242;BME280;68670;48.720;9.118;2023-09-19T01:46:14;96601.50;;;15.59;87.24
79242;BME280;68670;48.720;9.118;2023-09-19T01:48:56;96591.03;;;15.45;87.54
79242;BME280;68670;48.720;9.118;2023-09-19T01:51:43;96592.13;;;15.50;87.56
79242;BME280;68670;48.720;9.118;2023-09-19T01:54:12;96600.97;;;15.57;87.29
79242;BME280;68670;48.720;9.118;2023-09-19T01:57:16;96604.25;;;15.59;87.28
79242;BME280;68670;48.720;9.118;2023-09-19T01:59:50;96600.41;;;15.50;87.94
79242;BME280;68670;48.720;9.118;2023-09-19T02:02:18;96608.13;;;15.53;86.87
79242;BME280;68670;48.720;9.118;2023-09-19T02:04:48;96612.53;;;15.59;87.27
79242;BME280;68670;48.720;9.118;2023-09-19T02:07:16;96613.09;;;15.45;87.88
79242;BME280;68670;48.720;9.118;2023-09-19T02:09:43;96614.47;;;15.48;87.78
79242;BME280;68670;48.720;9.118;2023-09-19T02:12:09;96620.81;;;15.49;87.73
79242;BME280;68670;48.720;9.118;2023-09-19T02:14:39;96615.56;;;15.52;87.47
79242;BME280;68670;48.720;9.118;2023-09-19T02:17:09;96618.59;;;15.61;86.96
79242;BME280;68670;48.720;9.118;2023-09-19T02:19:37;96618.59;;;15.51;87.50
79242;BME280;68670;48.720;9.118;2023-09-19T02:22:04;96616.72;;;15.36;88.27
79242;BME280;68670;48.720;9.118;2023-09-19T02:24:33;96617.53;;;15.36;88.62
79242;BME280;68670;48.720;9.118;2023-09-19T02:26:58;96629.72;;;15.25;88.96
79242;BME280;68670;48.720;9.118;2023-09-19T02:29:31;96618.09;;;15.28;88.99
79242;BME280;68670;48.720;9.118;2023-09-19T02:31:57;96630.50;;;15.31;88.94
79242;BME280;68670;48.720;9.118;2023-09-19T02:34:22;96631.38;;;15.26;89.17
79242;BME280;68670;48.720;9.118;2023-09-19T02:36:48;96635.25;;;15.10;89.96
79242;BME280;68670;48.720;9.118;2023-09-19T02:39:13;96631.13;;;15.18;90.00
79242;BME280;68670;48.720;9.118;2023-09-19T02:41:41;96633.31;;;15.21;89.57
79242;BME280;68670;48.720;9.118;2023-09-19T02:44:07;96627.53;;;15.17;90.18
79242;BME280;68670;48.720;9.118;2023-09-19T02:46:36;96628.38;;;15.07;90.75
79242;BME280;68670;48.720;9.118;2023-09-19T02:49:02;96632.50;;;15.10;90.66
79242;BME280;68670;48.720;9.118;2023-09-19T02:51:33;96640.78;;;15.00;91.09
79242;BME280;68670;48.720;9.118;2023-09-19T02:54:01;96638.28;;;15.13;90.61
79242;BME280;68670;48.720;9.118;2023-09-19T02:56:29;96628.38;;;15.02;91.04
79242;BME280;68670;48.720;9.118;2023-09-19T02:58:56;96642.97;;;15.13;90.55
79242;BME280;68670;48.720;9.118;2023-09-19T03:01:21;96638.56;;;15.12;90.83
79242;BME280;68670;48.720;9.118;2023-09-19T03:03:50;96655.66;;;15.19;90.33
79242;BME280;68670;48.720;9.118;2023-09-19T03:06:17;96640.22;;;15.13;90.76
79242;BME280;68670;48.720;9.118;2023-09-19T03:08:45;96650.69;;;15.16;90.92
79242;BME280;68670;48.720;9.118;2023-09-19T03:11:12;96654.00;;;15.13;91.33
79242;BME280;68670;48.720;9.118;2023-09-19T03:13:40;96649.06;;;15.15;91.08
79242;BME280;68670;48.720;9.118;2023-09-19T03:16:07;96659.53;;;15.18;90.77
79242;BME280;68670;48.720;9.118;2023-09-19T03:18:36;96658.44;;;15.14;91.53
79242;BME280;68670;48.720;9.118;2023-09-19T03:21:01;96653.75;;;15.15;91.25
79242;BME280;68670;48.720;9.118;2023-09-19T03:23:30;96648.50;;;15.18;91.16
79242;BME280;68670;48.720;9.118;2023-09-19T03:26:01;96651.81;;;15.10;91.47
79242;BME280;68670;48.720;9.118;2023-09-19T03:28:35;96650.16;;;15.19;90.77
79242;BME280;68670;48.720;9.118;2023-09-19T03:31:04;96649.59;;;15.22;90.82
79242;BME280;68670;48.720;9.118;2023-09-19T03:33:32;96653.47;;;15.21;90.78
79242;BME280;68670;48.720;9.118;2023-09-19T03:36:02;96653.72;;;15.25;90.58
79242;BME280;68670;48.720;9.118;2023-09-19T03:38:31;96639.34;;;15.38;89.80
79242;BME280;68670;48.720;9.118;2023-09-19T03:40:59;96648.44;;;15.33;89.89
79242;BME280;68670;48.720;9.118;2023-09-19T03:43:27;96643.53;;;15.25;90.47
79242;BME280;68670;48.720;9.118;2023-09-19T03:45:53;96639.34;;;15.38;89.91
79242;BME280;68670;48.720;9.118;2023-09-19T03:48:19;96636.84;;;15.36;90.10
79242;BME280;68670;48.720;9.118;2023-09-19T03:50:46;96643.75;;;15.39;90.26
79242;BME280;68670;48.720;9.118;2023-09-19T03:53:17;96648.16;;;15.35;90.67
79242;BME280;68670;48.720;9.118;2023-09-19T03:55:45;96644.56;;;15.39;90.58
79242;BME280;68670;48.720;9.118;2023-09-19T03:58:15;96651.47;;;15.37;90.71
79242;BME280;68670;48.720;9.118;2023-09-19T04:00:42;96644.84;;;15.33;91.25
79242;BME280;68670;48.720;9.118;2023-09-19T04:03:10;96648.22;;;15.25;91.92
79242;BME280;68670;48.720;9.118;2023-09-19T04:05:44;96655.66;;;15.19;92.05
79242;BME280;68670;48.720;9.118;2023-09-19T04:08:09;96650.69;;;15.21;92.32
79242;BME280;68670;48.720;9.118;2023-09-19T04:10:34;96654.56;;;15.20;92.72
79242;BME280;68670;48.720;9.118;2023-09-19T04:13:02;96650.72;;;15.11;93.45
79242;BME280;68670;48.720;9.118;2023-09-19T04:15:32;96647.94;;;15.06;94.07
79242;BME280;68670;48.720;9.118;2023-09-19T04:18:02;96645.19;;;14.96;94.96
79242;BME280;68670;48.720;9.118;2023-09-19T04:20:30;96654.31;;;14.91;95.45
79242;BME280;68670;48.720;9.118;2023-09-19T04:22:58;96656.22;;;14.96;95.04
79242;BME280;68670;48.720;9.118;2023-09-19T04:25:25;96663.97;;;14.94;95.54
79242;BME280;68670;48.720;9.118;2023-09-19T04:27:52;96665.63;;;14.85;96.00
79242;BME280;68670;48.720;9.118;2023-09-19T04:30:18;96657.06;;;15.01;95.29
79242;BME280;68670;48.720;9.118;2023-09-19T04:32:43;96665.03;;;14.98;95.06
79242;BME280;68670;48.720;9.118;2023-09-19T04:35:15;96661.75;;;15.06;94.81
79242;BME280;68670;48.720;9.118;2023-09-19T04:37:41;96663.94;;;15.04;95.02
79242;BME280;68670;48.720;9.118;2023-09-19T04:40:11;96661.19;;;14.99;95.58
79242;BME280;68670;48.720;9.118;2023-09-19T04:42:44;96666.72;;;14.94;96.50
79242;BME280;68670;48.720;9.118;2023-09-19T04:45:10;96666.16;;;15.02;95.32
79242;BME280;68670;48.720;9.118;2023-09-19T04:47:39;96671.66;;;14.97;95.59
79242;BME280;68670;48.720;9.118;2023-09-19T04:50:06;96674.97;;;15.04;94.92
79242;BME280;68670;48.720;9.118;2023-09-19T04:52:32;96666.69;;;15.19;93.99
79242;BME280;68670;48.720;9.118;2023-09-19T04:55:01;96681.00;;;15.31;91.88
79242;BME280;68670;48.720;9.118;2023-09-19T04:57:26;96688.19;;;15.27;92.44
79242;BME280;68670;48.720;9.118;2023-09-19T04:59:53;96695.34;;;15.43;91.46
79242;BME280;68670;48.720;9.118;2023-09-19T05:02:21;96698.69;;;15.30;92.62
79242;BME280;68670;48.720;9.118;2023-09-19T05:04:48;96707.50;;;15.32;92.86
79242;BME280;68670;48.720;9.118;2023-09-19T05:07:16;96707.22;;;15.34;93.53
79242;BME280;68670;48.720;9.118;2023-09-19T05:09:45;96701.97;;;15.27;94.17
79242;BME280;68670;48.720;9.118;2023-09-19T05:12:11;96713.59;;;15.14;95.93
79242;BME280;68670;48.720;9.118;2023-09-19T05:14:36;96723.53;;;15.10;96.47
79242;BME280;68670;48.720;9.118;2023-09-19T05:17:04;96722.41;;;14.96;98.21
79242;BME280;68670;48.720;9.118;2023-09-19T05:19:32;96716.06;;;14.95;98.62
79242;BME280;68670;48.720;9.118;2023-09-19T05:22:00;96707.28;;;14.93;99.29
79242;BME280;68670;48.720;9.118;2023-09-19T05:24:25;96714.72;;;14.88;100.00
79242;BME280;68670;48.720;9.118;2023-09-19T05:26:53;96719.41;;;14.87;99.90
79242;BME280;68670;48.720;9.118;2023-09-19T05:29:22;96715.81;;;14.82;100.00
79242;BME280;68670;48.720;9.118;2023-09-19T05:31:52;96716.03;;;14.65;100.00
79242;BME280;68670;48.720;9.118;2023-09-19T05:34:21;96721.28;;;14.71;100.00
79242;BME280;68670;48.720;9.118;2023-09-19T05:36:46;96719.09;;;14.78;100.00
79242;BME280;68670;48.720;9.118;2023-09-19T05:39:18;96728.47;;;14.72;100.00
79242;BME280;68670;48.720;9.118;2023-09-19T05:41:44;96724.03;;;14.66;100.00
79242;BME280;68670;48.720;9.118;2023-09-19T05:44:10;96717.97;;;14.69;100.00
79242;BME280;68670;48.720;9.118;2023-09-19T05:46:40;96725.16;;;14.70;100.00
79242;BME280;68670;48.720;9.118;2023-09-19T05:49:07;96725.97;;;14.71;100.00
79242;BME280;68670;48.720;9.118;2023-09-19T05:51:36;96730.72;;;14.91;100.00
79242;BME280;68670;48.720;9.118;2023-09-19T05:54:04;96748.34;;;14.85;100.00
79242;BME280;68670;48.720;9.118;2023-09-19T05:56:29;96757.72;;;14.84;100.00
79242;BME280;68670;48.720;9.118;2023-09-19T05:58:59;96782.56;;;14.89;100.00
79242;BME280;68670;48.720;9.118;2023-09-19T06:01:25;96775.94;;;14.90;99.63
79242;BME280;68670;48.720;9.118;2023-09-19T06:03:50;96780.06;;;14.87;97.57
79242;BME280;68670;48.720;9.118;2023-09-19T06:06:16;96775.88;;;14.74;98.41
79242;BME280;68670;48.720;9.118;2023-09-19T06:08:44;96779.72;;;14.68;99.10
79242;BME280;68670;48.720;9.118;2023-09-19T06:11:09;96784.19;;;14.79;97.23
79242;BME280;68670;48.720;9.118;2023-09-19T06:13:37;96784.69;;;14.66;98.71
79242;BME280;68670;48.720;9.118;2023-09-19T06:16:05;96781.94;;;14.56;99.74
79242;BME280;68670;48.720;9.118;2023-09-19T06:18:31;96795.41;;;14.63;98.75
79242;BME280;68670;48.720;9.118;2023-09-19T06:21:01;96797.91;;;14.54;97.04
79242;BME280;68670;48.720;9.118;2023-09-19T06:23:30;96798.44;;;14.51;96.50
79242;BME280;68670;48.720;9.118;2023-09-19T06:25:59;96790.69;;;14.43;97.69
79242;BME280;68670;48.720;9.118;2023-09-19T06:28:24;96801.09;;;14.36;98.20
79242;BME280;68670;48.720;9.118;2023-09-19T06:30:55;96788.44;;;14.40;98.38
79242;BME280;68670;48.720;9.118;2023-09-19T06:33:23;96801.09;;;14.36;99.74
79242;BME280;68670;48.720;9.118;2023-09-19T06:35:51;96798.91;;;14.38;100.00
79242;BME280;68670;48.720;9.118;2023-09-19T06:38:26;96805.03;;;14.45;98.75
79242;BME280;68670;48.720;9.118;2023-09-19T06:40:52;96804.41;;;14.38;98.74
79242;BME280;68670;48.720;9.118;2023-09-19T06:43:18;96808.88;;;14.44;99.08
79242;BME280;68670;48.720;9.118;2023-09-19T06:45:43;96799.00;;;14.53;96.14
79242;BME280;68670;48.720;9.118;2023-09-19T06:48:11;96810.59;;;14.55;96.17
79242;BME280;68670;48.720;9.118;2023-09-19T06:50:37;96803.38;;;14.49;96.82
79242;BME280;68670;48.720;9.118;2023-09-19T06:53:06;96807.25;;;14.53;97.78
79242;BME280;68670;48.720;9.118;2023-09-19T06:55:31;96797.38;;;14.57;97.62
79242;BME280;68670;48.720;9.118;2023-09-19T06:58:02;96808.38;;;14.62;97.08
79242;BME280;68670;48.720;9.118;2023-09-19T07:00:29;96812.78;;;14.63;99.02
79242;BME280;68670;48.720;9.118;2023-09-19T07:03:07;96818.88;;;14.70;97.27
79242;BME280;68670;48.720;9.118;2023-09-19T07:05:37;96822.22;;;14.77;97.65
79242;BME280;68670;48.720;9.118;2023-09-19T07:08:03;96832.72;;;14.86;93.66
79242;BME280;68670;48.720;9.118;2023-09-19T07:10:32;96833.28;;;14.88;94.76
79242;BME280;68670;48.720;9.118;2023-09-19T07:15:28;96841.56;;;14.98;94.79
79242;BME280;68670;48.720;9.118;2023-09-19T07:17:54;96849.84;;;14.93;96.04
79242;BME280;68670;48.720;9.118;2023-09-19T07:20:21;96847.91;;;14.98;95.96
79242;BME280;68670;48.720;9.118;2023-09-19T07:22:47;96846.53;;;15.01;94.41
79242;BME280;68670;48.720;9.118;2023-09-19T07:25:15;96842.69;;;15.07;94.80
79242;BME280;68670;48.720;9.118;2023-09-19T07:27:43;96846.28;;;15.12;95.15
79242;BME280;68670;48.720;9.118;2023-09-19T07:30:10;96843.00;;;15.16;93.96
79242;BME280;68670;48.720;9.118;2023-09-19T07:32:37;96846.59;;;15.31;92.63
79242;BME280;68670;48.720;9.118;2023-09-19T07:35:03;96849.91;;;15.43;92.54
79242;BME280;68670;48.720;9.118;2023-09-19T07:37:30;96856.59;;;15.58;90.60
79242;BME280;68670;48.720;9.118;2023-09-19T07:40:00;96856.03;;;15.76;90.76
79242;BME280;68670;48.720;9.118;2023-09-19T07:42:28;96861.25;;;15.98;89.10
79242;BME280;68670;48.720;9.118;2023-09-19T07:44:53;96865.91;;;16.23;87.78
79242;BME280;68670;48.720;9.118;2023-09-19T07:47:20;96863.66;;;16.40;88.26
79242;BME280;68670;48.720;9.118;2023-09-19T07:49:48;96865.31;;;16.31;86.24
79242;BME280;68670;48.720;9.118;2023-09-19T07:52:13;96871.13;;;16.29;86.35
79242;BME280;68670;48.720;9.118;2023-09-19T07:54:39;96864.75;;;16.34;86.55
79242;BME280;68670;48.720;9.118;2023-09-19T07:57:06;96860.03;;;16.44;89.35
79242;BME280;68670;48.720;9.118;2023-09-19T07:59:34;96871.38;;;16.48;87.30
79242;BME280;68670;48.720;9.118;2023-09-19T08:02:01;96874.66;;;16.65;86.65
79242;BME280;68670;48.720;9.118;2023-09-19T08:04:26;96863.28;;;16.62;87.35
79242;BME280;68670;48.720;9.118;2023-09-19T08:06:52;96873.22;;;16.63;85.04
79242;BME280;68670;48.720;9.118;2023-09-19T08:09:17;96867.97;;;16.76;84.53
79242;BME280;68670;48.720;9.118;2023-09-19T08:11:48;96869.59;;;16.88;86.63
79242;BME280;68670;48.720;9.118;2023-09-19T08:14:13;96873.75;;;16.80;81.69
79242;BME280;68670;48.720;9.118;2023-09-19T08:16:41;96880.16;;;16.70;84.24
79242;BME280;68670;48.720;9.118;2023-09-19T08:19:10;96884.00;;;16.79;83.77
79242;BME280;68670;48.720;9.118;2023-09-19T08:21:35;96879.59;;;16.78;85.14
79242;BME280;68670;48.720;9.118;2023-09-19T08:24:01;96879.53;;;16.89;81.62
79242;BME280;68670;48.720;9.118;2023-09-19T08:26:29;96896.66;;;16.91;80.53
79242;BME280;68670;48.720;9.118;2023-09-19T08:28:57;96890.25;;;17.00;80.00
79242;BME280;68670;48.720;9.118;2023-09-19T08:31:30;96896.84;;;17.15;78.01
79242;BME280;68670;48.720;9.118;2023-09-19T08:33:55;96892.44;;;17.08;78.30
79242;BME280;68670;48.720;9.118;2023-09-19T08:36:21;96899.91;;;17.08;76.28
79242;BME280;68670;48.720;9.118;2023-09-19T08:38:46;96904.00;;;17.21;78.05
79242;BME280;68670;48.720;9.118;2023-09-19T08:41:11;96902.06;;;17.21;77.85
79242;BME280;68670;48.720;9.118;2023-09-19T08:43:39;96906.53;;;17.17;77.97
79242;BME280;68670;48.720;9.118;2023-09-19T08:46:10;96904.59;;;17.12;77.77
79242;BME280;68670;48.720;9.118;2023-09-19T08:48:39;96906.03;;;17.00;76.53
79242;BME280;68670;48.720;9.118;2023-09-19T08:51:12;96904.34;;;17.09;76.12
79242;BME280;68670;48.720;9.118;2023-09-19T08:54:06;96909.84;;;17.19;76.29
79242;BME280;68670;48.720;9.118;2023-09-19T08:56:33;96908.66;;;17.25;76.89
79242;BME280;68670;48.720;9.118;2023-09-19T08:59:06;96908.03;;;17.38;74.51
79242;BME280;68670;48.720;9.118;2023-09-19T09:01:35;96896.91;;;17.49;74.59
79242;BME280;68670;48.720;9.118;2023-09-19T09:04:08;96911.16;;;17.76;72.53
79242;BME280;68670;48.720;9.118;2023-09-19T09:06:34;96910.19;;;17.91;72.89
79242;BME280;68670;48.720;9.118;2023-09-19T09:09:01;96895.31;;;17.82;70.59
79242;BME280;68670;48.720;9.118;2023-09-19T09:11:28;96907.28;;;17.72;70.38
79242;BME280;68670;48.720;9.118;2023-09-19T09:13:56;96910.38;;;17.60;68.85
79242;BME280;68670;48.720;9.118;2023-09-19T09:16:22;96907.41;;;17.52;70.12
79242;BME280;68670;48.720;9.118;2023-09-19T09:18:51;96899.13;;;17.46;70.48
79242;BME280;68670;48.720;9.118;2023-09-19T09:21:18;96914.84;;;17.56;70.41
79242;BME280;68670;48.720;9.118;2023-09-19T09:23:45;96907.41;;;17.52;69.17
79242;BME280;68670;48.720;9.118;2023-09-19T09:26:13;96909.53;;;17.70;69.59
79242;BME280;68670;48.720;9.118;2023-09-19T09:28:46;96914.50;;;17.73;67.45
79242;BME280;68670;48.720;9.118;2023-09-19T09:31:24;96909.75;;;17.78;67.90
79242;BME280;68670;48.720;9.118;2023-09-19T09:33:54;96917.75;;;17.85;66.55
79242;BME280;68670;48.720;9.118;2023-09-19T09:36:36;96912.59;;;18.02;65.58
79242;BME280;68670;48.720;9.118;2023-09-19T09:39:02;96907.38;;;18.25;65.39
79242;BME280;68670;48.720;9.118;2023-09-19T09:41:41;96911.16;;;18.39;65.16
79242;BME280;68670;48.720;9.118;2023-09-19T09:44:14;96905.94;;;18.61;63.97
79242;BME280;68670;48.720;9.118;2023-09-19T09:46:44;96898.91;;;18.69;63.98
79242;BME280;68670;48.720;9.118;2023-09-19T09:49:25;96909.78;;;19.13;61.49
79242;BME280;68670;48.720;9.118;2023-09-19T09:52:02;96908.75;;;19.46;60.43
79242;BME280;68670;48.720;9.118;2023-09-19T09:54:33;96913.56;;;19.97;57.42
79242;BME280;68670;48.720;9.118;2023-09-19T09:57:04;96918.00;;;19.98;58.22
79242;BME280;68670;48.720;9.118;2023-09-19T10:02:20;96916.94;;;20.59;54.05
79242;BME280;68670;48.720;9.118;2023-09-19T10:04:57;96908.81;;;20.63;53.28
79242;BME280;68670;48.720;9.118;2023-09-19T10:07:41;96914.78;;;20.56;51.43
79242;BME280;68670;48.720;9.118;2023-09-19T10:10:14;96919.81;;;20.40;52.21
79242;BME280;68670;48.720;9.118;2023-09-19T10:12:43;96903.13;;;19.89;50.66
79242;BME280;68670;48.720;9.118;2023-09-19T10:15:12;96917.03;;;19.70;52.50
79242;BME280;68670;48.720;9.118;2023-09-19T10:17:43;96920.16;;;19.83;52.67
79242;BME280;68670;48.720;9.118;2023-09-19T10:20:12;96913.19;;;19.85;51.39
79242;BME280;68670;48.720;9.118;2023-09-19T10:22:48;96912.84;;;19.73;51.22
79242;BME280;68670;48.720;9.118;2023-09-19T10:25:27;96911.47;;;19.52;51.66
79242;BME280;68670;48.720;9.118;2023-09-19T10:28:00;96899.16;;;19.58;52.19
79242;BME280;68670;48.720;9.118;2023-09-19T10:30:28;96895.78;;;19.61;53.52
79242;BME280;68670;48.720;9.118;2023-09-19T10:33:04;96891.66;;;19.77;52.27
79242;BME280;68670;48.720;9.118;2023-09-19T10:35:38;96888.44;;;20.02;52.51
79242;BME280;68670;48.720;9.118;2023-09-19T10:38:06;96901.91;;;19.95;51.90
79242;BME280;68670;48.720;9.118;2023-09-19T10:40:34;96892.53;;;19.91;50.84
79242;BME280;68670;48.720;9.118;2023-09-19T10:43:03;96894.50;;;19.72;50.92
79242;BME280;68670;48.720;9.118;2023-09-19T10:45:35;96904.13;;;19.61;51.08
79242;BME280;68670;48.720;9.118;2023-09-19T10:48:05;96902.53;;;19.55;51.63
79242;BME280;68670;48.720;9.118;2023-09-19T10:50:36;96920.56;;;19.57;52.11
79242;BME280;68670;48.720;9.118;2023-09-19T10:53:09;96906.88;;;19.42;51.30
79242;BME280;68670;48.720;9.118;2023-09-19T10:55:38;96907.34;;;19.49;51.97
79242;BME280;68670;48.720;9.118;2023-09-19T10:58:08;96913.66;;;19.55;51.62
79242;BME280;68670;48.720;9.118;2023-09-19T11:00:55;96907.44;;;19.63;51.64
79242;BME280;68670;48.720;9.118;2023-09-19T11:03:23;96907.81;;;19.75;51.35
79242;BME280;68670;48.720;9.118;2023-09-19T11:09:03;96900.06;;;19.72;50.70
79242;BME280;68670;48.720;9.118;2023-09-19T11:11:41;96896.16;;;19.73;52.00
79242;BME280;68670;48.720;9.118;2023-09-19T11:28:30;96890.97;;;19.48;51.68
79242;BME280;68670;48.720;9.118;2023-09-19T11:31:40;96888.03;;;19.58;51.33
79242;BME280;68670;48.720;9.118;2023-09-19T11:33:44;96883.22;;;19.82;52.36
79242;BME280;68670;48.720;9.118;2023-09-19T11:36:13;96885.16;;;20.00;50.69
79242;BME280;68670;48.720;9.118;2023-09-19T11:46:24;96875.41;;;20.17;51.02
79242;BME280;68670;48.720;9.118;2023-09-19T11:48:51;96881.63;;;20.27;50.63
79242;BME280;68670;48.720;9.118;2023-09-19T11:53:52;96876.78;;;20.33;51.20
79242;BME280;68670;48.720;9.118;2023-09-19T11:56:19;96877.00;;;20.36;50.45
79242;BME280;68670;48.720;9.118;2023-09-19T11:58:46;96876.78;;;20.33;50.99
79242;BME280;68670;48.720;9.118;2023-09-19T12:01:32;96878.19;;;20.17;49.77
79242;BME280;68670;48.720;9.118;2023-09-19T12:04:02;96869.91;;;19.98;51.27
79242;BME280;68670;48.720;9.118;2023-09-19T12:06:30;96879.44;;;20.10;51.10
79242;BME280;68670;48.720;9.118;2023-09-19T12:08:57;96866.13;;;20.95;50.63
79242;BME280;68670;48.720;9.118;2023-09-19T12:11:30;96857.06;;;21.03;49.73
79242;BME280;68670;48.720;9.118;2023-09-19T12:13:59;96856.97;;;21.80;46.72
79242;BME280;68670;48.720;9.118;2023-09-19T12:16:26;96861.50;;;21.54;46.97
79242;BME280;68670;48.720;9.118;2023-09-19T12:18:56;96866.94;;;22.39;45.30
79242;BME280;68670;48.720;9.118;2023-09-19T12:21:32;96855.91;;;23.05;43.59
79242;BME280;68670;48.720;9.118;2023-09-19T12:24:07;96848.41;;;23.31;44.01
79242;BME280;68670;48.720;9.118;2023-09-19T12:26:44;96843.00;;;24.12;42.10
79242;BME280;68670;48.720;9.118;2023-09-19T12:29:17;96844.63;;;24.22;41.23
79242;BME280;68670;48.720;9.118;2023-09-19T12:31:50;96838.44;;;23.65;42.06
79242;BME280;68670;48.720;9.118;2023-09-19T12:34:21;96827.16;;;23.13;43.67
79242;BME280;68670;48.720;9.118;2023-09-19T12:36:48;96823.91;;;22.71;44.07
79242;BME280;68670;48.720;9.118;2023-09-19T12:39:24;96824.34;;;23.13;43.34
79242;BME280;68670;48.720;9.118;2023-09-19T12:41:51;96839.56;;;23.98;42.44
79242;BME280;68670;48.720;9.118;2023-09-19T12:44:21;96829.13;;;24.42;40.12
79242;BME280;68670;48.720;9.118;2023-09-19T12:46:50;96818.78;;;24.34;39.30
79242;BME280;68670;48.720;9.118;2023-09-19T12:49:19;96819.75;;;24.38;40.15
79242;BME280;68670;48.720;9.118;2023-09-19T12:51:48;96817.88;;;24.59;40.32
79242;BME280;68670;48.720;9.118;2023-09-19T12:54:15;96816.28;;;25.17;38.10
79242;BME280;68670;48.720;9.118;2023-09-19T12:56:43;96810.19;;;25.15;39.43
79242;BME280;68670;48.720;9.118;2023-09-19T12:59:12;96825.81;;;24.49;38.67
79242;BME280;68670;48.720;9.118;2023-09-19T13:01:42;96815.88;;;23.53;41.48
79242;BME280;68670;48.720;9.118;2023-09-19T13:06:52;96820.44;;;25.11;39.32
79242;BME280;68670;48.720;9.118;2023-09-19T13:09:21;96810.97;;;25.24;38.82
79242;BME280;68670;48.720;9.118;2023-09-19T13:11:47;96809.53;;;25.18;38.39
79242;BME280;68670;48.720;9.118;2023-09-19T13:14:24;96803.72;;;25.44;38.90
79242;BME280;68670;48.720;9.118;2023-09-19T13:16:57;96806.59;;;25.65;37.99
79242;BME280;68670;48.720;9.118;2023-09-19T13:19:43;96807.78;;;25.76;38.33
79242;BME280;68670;48.720;9.118;2023-09-19T13:22:42;96807.84;;;25.47;37.24
79242;BME280;68670;48.720;9.118;2023-09-19T13:25:18;96809.97;;;25.50;37.29
79242;BME280;68670;48.720;9.118;2023-09-19T13:27:47;96804.09;;;25.84;37.67
79242;BME280;68670;48.720;9.118;2023-09-19T13:30:13;96799.31;;;25.85;37.33
79242;BME280;68670;48.720;9.118;2023-09-19T13:32:41;96800.31;;;25.80;36.45
79242;BME280;68670;48.720;9.118;2023-09-19T13:35:09;96801.78;;;25.65;37.35
79242;BME280;68670;48.720;9.118;2023-09-19T13:37:35;96796.34;;;25.81;37.08
79242;BME280;68670;48.720;9.118;2023-09-19T13:40:02;96795.50;;;26.01;37.80
79242;BME280;68670;48.720;9.118;2023-09-19T13:42:30;96794.84;;;26.17;35.52
79242;BME280;68670;48.720;9.118;2023-09-19T13:44:58;96789.59;;;25.82;36.10
79242;BME280;68670;48.720;9.118;2023-09-19T13:47:24;96794.25;;;25.07;37.44
79242;BME280;68670;48.720;9.118;2023-09-19T13:49:51;96782.94;;;24.95;36.95
79242;BME280;68670;48.720;9.118;2023-09-19T13:52:23;96789.28;;;24.74;38.37
79242;BME280;68670;48.720;9.118;2023-09-19T13:54:50;96776.34;;;24.99;38.71
79242;BME280;68670;48.720;9.118;2023-09-19T13:57:24;96785.59;;;25.21;37.85
79242;BME280;68670;48.720;9.118;2023-09-19T13:59:51;96766.31;;;25.19;36.91
79242;BME280;68670;48.720;9.118;2023-09-19T14:02:16;96778.63;;;25.27;38.45